sensor_id;sensor_type;location;lat;lon;timestamp;pressure;altitude;pressure_sealevel;temperature
53667;BMP280;39568;51.026;5.468;2023-06-26T00:01:55;100514.22;;;24.41
53667;BMP280;39568;51.026;5.468;2023-06-26T00:04:22;100510.78;;;24.29
53667;BMP280;39568;51.026;5.468;2023-06-26T00:06:50;100512.78;;;24.06
53667;BMP280;39568;51.026;5.468;2023-06-26T00:09:17;100515.72;;;23.98
53667;BMP280;39568;51.026;5.468;2023-06-26T00:11:47;100513.13;;;24.00
53667;BMP280;39568;51.026;5.468;2023-06-26T00:14:14;100516.28;;;23.97
53667;BMP280;39568;51.026;5.468;2023-06-26T00:16:46;100521.13;;;23.75
53667;BMP280;39568;51.026;5.468;2023-06-26T00:19:14;100514.94;;;23.63
53667;BMP280;39568;51.026;5.468;2023-06-26T00:21:41;100513.56;;;23.41
53667;BMP280;39568;51.026;5.468;2023-06-26T00:24:15;100514.22;;;23.30
53667;BMP280;39568;51.026;5.468;2023-06-26T00:26:42;100510.91;;;23.31
53667;BMP280;39568;51.026;5.468;2023-06-26T00:29:12;100513.19;;;23.14
53667;BMP280;39568;51.026;5.468;2023-06-26T00:31:43;100499.47;;;23.12
53667;BMP280;39568;51.026;5.468;2023-06-26T00:34:10;100504.78;;;23.10
53667;BMP280;39568;51.026;5.468;2023-06-26T00:36:36;100509.59;;;23.11
53667;BMP280;39568;51.026;5.468;2023-06-26T00:39:03;100509.53;;;23.00
53667;BMP280;39568;51.026;5.468;2023-06-26T00:41:30;100514.59;;;22.94
53667;BMP280;39568;51.026;5.468;2023-06-26T00:43:59;100508.16;;;22.99
53667;BMP280;39568;51.026;5.468;2023-06-26T00:46:28;100504.00;;;22.98
53667;BMP280;39568;51.026;5.468;2023-06-26T00:49:00;100498.34;;;22.84
53667;BMP280;39568;51.026;5.468;2023-06-26T00:51:32;100511.03;;;22.91
53667;BMP280;39568;51.026;5.468;2023-06-26T00:54:01;100493.53;;;22.83
53667;BMP280;39568;51.026;5.468;2023-06-26T00:56:32;100503.53;;;22.80
53667;BMP280;39568;51.026;5.468;2023-06-26T00:59:01;100505.03;;;22.71
53667;BMP280;39568;51.026;5.468;2023-06-26T01:01:36;100505.19;;;22.64
53667;BMP280;39568;51.026;5.468;2023-06-26T01:04:05;100502.25;;;22.50
53667;BMP280;39568;51.026;5.468;2023-06-26T01:06:33;100519.66;;;22.47
53667;BMP280;39568;51.026;5.468;2023-06-26T01:09:03;100513.97;;;22.43
53667;BMP280;39568;51.026;5.468;2023-06-26T01:11:30;100520.16;;;22.34
53667;BMP280;39568;51.026;5.468;2023-06-26T01:13:59;100529.56;;;22.33
53667;BMP280;39568;51.026;5.468;2023-06-26T01:16:32;100532.44;;;22.26
53667;BMP280;39568;51.026;5.468;2023-06-26T01:19:03;100525.75;;;22.27
53667;BMP280;39568;51.026;5.468;2023-06-26T01:21:36;100526.56;;;22.29
53667;BMP280;39568;51.026;5.468;2023-06-26T01:24:09;100533.44;;;22.30
53667;BMP280;39568;51.026;5.468;2023-06-26T01:26:48;100531.16;;;22.27
53667;BMP280;39568;51.026;5.468;2023-06-26T01:29:18;100534.16;;;22.21
53667;BMP280;39568;51.026;5.468;2023-06-26T01:31:53;100537.72;;;22.24
53667;BMP280;39568;51.026;5.468;2023-06-26T01:34:21;100549.00;;;22.20
53667;BMP280;39568;51.026;5.468;2023-06-26T01:36:50;100532.47;;;22.16
53667;BMP280;39568;51.026;5.468;2023-06-26T01:39:21;100535.03;;;22.14
53667;BMP280;39568;51.026;5.468;2023-06-26T01:41:56;100535.91;;;22.07
53667;BMP280;39568;51.026;5.468;2023-06-26T01:44:27;100540.47;;;22.05
53667;BMP280;39568;51.026;5.468;2023-06-26T01:47:00;100543.63;;;22.01
53667;BMP280;39568;51.026;5.468;2023-06-26T01:49:39;100548.59;;;21.95
53667;BMP280;39568;51.026;5.468;2023-06-26T01:52:12;100542.50;;;21.85
53667;BMP280;39568;51.026;5.468;2023-06-26T01:54:49;100558.16;;;21.86
53667;BMP280;39568;51.026;5.468;2023-06-26T01:57:20;100553.16;;;21.83
53667;BMP280;39568;51.026;5.468;2023-06-26T01:59:51;100555.47;;;21.77
53667;BMP280;39568;51.026;5.468;2023-06-26T02:02:20;100559.47;;;21.76
53667;BMP280;39568;51.026;5.468;2023-06-26T02:04:53;100565.03;;;21.68
53667;BMP280;39568;51.026;5.468;2023-06-26T02:07:21;100563.03;;;21.69
53667;BMP280;39568;51.026;5.468;2023-06-26T02:09:49;100564.44;;;21.60
53667;BMP280;39568;51.026;5.468;2023-06-26T02:12:15;100563.88;;;21.62
53667;BMP280;39568;51.026;5.468;2023-06-26T02:14:45;100564.44;;;21.60
53667;BMP280;39568;51.026;5.468;2023-06-26T02:17:13;100576.41;;;21.57
53667;BMP280;39568;51.026;5.468;2023-06-26T02:19:40;100573.00;;;21.57
53667;BMP280;39568;51.026;5.468;2023-06-26T02:22:14;100567.13;;;21.51
53667;BMP280;39568;51.026;5.468;2023-06-26T02:24:43;100562.84;;;21.48
53667;BMP280;39568;51.026;5.468;2023-06-26T02:27:09;100573.25;;;21.42
53667;BMP280;39568;51.026;5.468;2023-06-26T02:29:36;100566.84;;;21.37
53667;BMP280;39568;51.026;5.468;2023-06-26T02:32:07;100569.38;;;21.35
53667;BMP280;39568;51.026;5.468;2023-06-26T02:34:34;100577.50;;;21.35
53667;BMP280;39568;51.026;5.468;2023-06-26T02:37:03;100575.91;;;21.23
53667;BMP280;39568;51.026;5.468;2023-06-26T02:39:32;100576.34;;;21.19
53667;BMP280;39568;51.026;5.468;2023-06-26T02:41:59;100583.72;;;21.19
53667;BMP280;39568;51.026;5.468;2023-06-26T02:44:26;100579.03;;;21.10
53667;BMP280;39568;51.026;5.468;2023-06-26T02:46:53;100582.69;;;21.05
53667;BMP280;39568;51.026;5.468;2023-06-26T02:49:22;100573.97;;;20.96
53667;BMP280;39568;51.026;5.468;2023-06-26T02:51:51;100576.38;;;20.92
53667;BMP280;39568;51.026;5.468;2023-06-26T02:54:18;100580.59;;;20.86
53667;BMP280;39568;51.026;5.468;2023-06-26T02:56:54;100584.88;;;20.79
53667;BMP280;39568;51.026;5.468;2023-06-26T02:59:29;100579.16;;;20.75
53667;BMP280;39568;51.026;5.468;2023-06-26T03:01:56;100584.81;;;20.70
53667;BMP280;39568;51.026;5.468;2023-06-26T03:04:24;100582.81;;;20.70
53667;BMP280;39568;51.026;5.468;2023-06-26T03:06:51;100588.53;;;20.74
53667;BMP280;39568;51.026;5.468;2023-06-26T03:09:17;100595.19;;;20.64
53667;BMP280;39568;51.026;5.468;2023-06-26T03:11:44;100595.91;;;20.64
53667;BMP280;39568;51.026;5.468;2023-06-26T03:14:13;100593.75;;;20.63
53667;BMP280;39568;51.026;5.468;2023-06-26T03:16:41;100597.81;;;20.54
53667;BMP280;39568;51.026;5.468;2023-06-26T03:19:08;100602.81;;;20.58
53667;BMP280;39568;51.026;5.468;2023-06-26T03:21:39;100615.16;;;20.51
53667;BMP280;39568;51.026;5.468;2023-06-26T03:24:08;100608.81;;;20.56
53667;BMP280;39568;51.026;5.468;2023-06-26T03:26:35;100617.44;;;20.55
53667;BMP280;39568;51.026;5.468;2023-06-26T03:29:04;100611.13;;;20.43
53667;BMP280;39568;51.026;5.468;2023-06-26T03:31:34;100613.75;;;20.33
53667;BMP280;39568;51.026;5.468;2023-06-26T03:34:01;100621.13;;;20.33
53667;BMP280;39568;51.026;5.468;2023-06-26T03:36:33;100621.53;;;20.29
53667;BMP280;39568;51.026;5.468;2023-06-26T03:39:03;100623.94;;;20.25
53667;BMP280;39568;51.026;5.468;2023-06-26T03:41:30;100626.00;;;20.17
53667;BMP280;39568;51.026;5.468;2023-06-26T03:43:56;100632.22;;;20.10
53667;BMP280;39568;51.026;5.468;2023-06-26T03:46:28;100625.47;;;20.01
53667;BMP280;39568;51.026;5.468;2023-06-26T03:48:57;100635.34;;;19.99
53667;BMP280;39568;51.026;5.468;2023-06-26T03:51:26;100640.63;;;19.97
53667;BMP280;39568;51.026;5.468;2023-06-26T03:53:54;100637.72;;;19.95
53667;BMP280;39568;51.026;5.468;2023-06-26T03:56:24;100641.72;;;19.94
53667;BMP280;39568;51.026;5.468;2023-06-26T03:58:51;100647.84;;;19.94
53667;BMP280;39568;51.026;5.468;2023-06-26T04:01:18;100649.81;;;19.94
53667;BMP280;39568;51.026;5.468;2023-06-26T04:03:45;100650.97;;;19.83
53667;BMP280;39568;51.026;5.468;2023-06-26T04:06:12;100650.91;;;19.91
53667;BMP280;39568;51.026;5.468;2023-06-26T04:08:42;100655.06;;;19.92
53667;BMP280;39568;51.026;5.468;2023-06-26T04:11:11;100651.09;;;19.93
53667;BMP280;39568;51.026;5.468;2023-06-26T04:13:39;100653.59;;;19.91
53667;BMP280;39568;51.026;5.468;2023-06-26T04:16:05;100660.13;;;19.88
53667;BMP280;39568;51.026;5.468;2023-06-26T04:18:32;100662.50;;;19.84
53667;BMP280;39568;51.026;5.468;2023-06-26T04:21:06;100662.84;;;19.88
53667;BMP280;39568;51.026;5.468;2023-06-26T04:23:37;100659.97;;;19.86
53667;BMP280;39568;51.026;5.468;2023-06-26T04:26:04;100663.78;;;19.83
53667;BMP280;39568;51.026;5.468;2023-06-26T04:28:31;100663.13;;;19.75
53667;BMP280;39568;51.026;5.468;2023-06-26T04:30:59;100670.72;;;19.69
53667;BMP280;39568;51.026;5.468;2023-06-26T04:33:26;100673.28;;;19.67
53667;BMP280;39568;51.026;5.468;2023-06-26T04:36:03;100683.75;;;19.63
53667;BMP280;39568;51.026;5.468;2023-06-26T04:38:30;100687.50;;;19.60
53667;BMP280;39568;51.026;5.468;2023-06-26T04:40:58;100679.06;;;19.63
53667;BMP280;39568;51.026;5.468;2023-06-26T04:43:25;100664.28;;;19.64
53667;BMP280;39568;51.026;5.468;2023-06-26T04:45:56;100691.56;;;19.76
53667;BMP280;39568;51.026;5.468;2023-06-26T04:48:27;100696.03;;;19.81
53667;BMP280;39568;51.026;5.468;2023-06-26T04:50:56;100692.22;;;19.84
53667;BMP280;39568;51.026;5.468;2023-06-26T04:53:27;100697.13;;;19.78
53667;BMP280;39568;51.026;5.468;2023-06-26T04:55:53;100695.41;;;19.90
53667;BMP280;39568;51.026;5.468;2023-06-26T04:58:20;100697.06;;;19.85
53667;BMP280;39568;51.026;5.468;2023-06-26T05:00:47;100701.13;;;19.94
53667;BMP280;39568;51.026;5.468;2023-06-26T05:03:16;100697.94;;;19.88
53667;BMP280;39568;51.026;5.468;2023-06-26T05:05:49;100703.56;;;19.82
53667;BMP280;39568;51.026;5.468;2023-06-26T05:08:17;100713.72;;;19.74
53667;BMP280;39568;51.026;5.468;2023-06-26T05:10:45;100710.34;;;19.66
53667;BMP280;39568;51.026;5.468;2023-06-26T05:13:12;100709.63;;;19.66
53667;BMP280;39568;51.026;5.468;2023-06-26T05:15:44;100719.44;;;19.54
53667;BMP280;39568;51.026;5.468;2023-06-26T05:18:11;100715.19;;;19.43
53667;BMP280;39568;51.026;5.468;2023-06-26T05:20:38;100714.50;;;19.35
53667;BMP280;39568;51.026;5.468;2023-06-26T05:23:07;100716.66;;;19.29
53667;BMP280;39568;51.026;5.468;2023-06-26T05:25:35;100727.06;;;19.40
53667;BMP280;39568;51.026;5.468;2023-06-26T05:28:04;100728.63;;;19.51
53667;BMP280;39568;51.026;5.468;2023-06-26T05:30:32;100723.31;;;19.60
53667;BMP280;39568;51.026;5.468;2023-06-26T05:33:01;100716.16;;;19.63
53667;BMP280;39568;51.026;5.468;2023-06-26T05:35:29;100712.31;;;19.66
53667;BMP280;39568;51.026;5.468;2023-06-26T05:37:57;100717.41;;;19.62
53667;BMP280;39568;51.026;5.468;2023-06-26T05:40:29;100709.50;;;19.56
53667;BMP280;39568;51.026;5.468;2023-06-26T05:42:56;100716.88;;;19.63
53667;BMP280;39568;51.026;5.468;2023-06-26T05:45:28;100729.31;;;19.59
53667;BMP280;39568;51.026;5.468;2023-06-26T05:47:55;100736.09;;;19.60
53667;BMP280;39568;51.026;5.468;2023-06-26T05:50:22;100744.81;;;19.51
53667;BMP280;39568;51.026;5.468;2023-06-26T05:52:49;100749.25;;;19.63
53667;BMP280;39568;51.026;5.468;2023-06-26T05:55:21;100752.28;;;19.60
53667;BMP280;39568;51.026;5.468;2023-06-26T05:57:51;100762.44;;;19.52
53667;BMP280;39568;51.026;5.468;2023-06-26T06:00:22;100767.56;;;19.65
53667;BMP280;39568;51.026;5.468;2023-06-26T06:02:54;100759.78;;;20.01
53667;BMP280;39568;51.026;5.468;2023-06-26T06:05:21;100772.09;;;20.11
53667;BMP280;39568;51.026;5.468;2023-06-26T06:07:48;100775.97;;;20.01
53667;BMP280;39568;51.026;5.468;2023-06-26T06:10:15;100763.06;;;19.92
53667;BMP280;39568;51.026;5.468;2023-06-26T06:12:41;100764.31;;;19.91
53667;BMP280;39568;51.026;5.468;2023-06-26T06:15:10;100774.25;;;19.88
53667;BMP280;39568;51.026;5.468;2023-06-26T06:17:41;100786.13;;;19.93
53667;BMP280;39568;51.026;5.468;2023-06-26T06:20:10;100770.69;;;19.86
53667;BMP280;39568;51.026;5.468;2023-06-26T06:22:37;100776.09;;;19.86
53667;BMP280;39568;51.026;5.468;2023-06-26T06:25:04;100799.25;;;19.96
53667;BMP280;39568;51.026;5.468;2023-06-26T06:27:30;100798.47;;;19.79
53667;BMP280;39568;51.026;5.468;2023-06-26T06:29:57;100799.88;;;19.80
53667;BMP280;39568;51.026;5.468;2023-06-26T06:32:26;100800.88;;;19.92
53667;BMP280;39568;51.026;5.468;2023-06-26T06:34:53;100799.75;;;19.95
53667;BMP280;39568;51.026;5.468;2023-06-26T06:37:19;100806.13;;;20.14
53667;BMP280;39568;51.026;5.468;2023-06-26T06:39:46;100800.38;;;20.10
53667;BMP280;39568;51.026;5.468;2023-06-26T06:42:13;100798.97;;;20.09
53667;BMP280;39568;51.026;5.468;2023-06-26T06:44:40;100808.72;;;20.05
53667;BMP280;39568;51.026;5.468;2023-06-26T06:47:07;100806.16;;;20.07
53667;BMP280;39568;51.026;5.468;2023-06-26T06:49:39;100802.41;;;20.10
53667;BMP280;39568;51.026;5.468;2023-06-26T06:52:06;100807.72;;;20.18
53667;BMP280;39568;51.026;5.468;2023-06-26T06:54:50;100813.50;;;20.39
53667;BMP280;39568;51.026;5.468;2023-06-26T06:57:20;100809.56;;;20.32
53667;BMP280;39568;51.026;5.468;2023-06-26T06:59:48;100808.66;;;20.54
53667;BMP280;39568;51.026;5.468;2023-06-26T07:02:17;100813.03;;;20.67
53667;BMP280;39568;51.026;5.468;2023-06-26T07:04:45;100814.53;;;20.77
53667;BMP280;39568;51.026;5.468;2023-06-26T07:07:17;100824.19;;;20.88
53667;BMP280;39568;51.026;5.468;2023-06-26T07:09:44;100824.03;;;21.03
53667;BMP280;39568;51.026;5.468;2023-06-26T07:12:14;100825.34;;;20.77
53667;BMP280;39568;51.026;5.468;2023-06-26T07:14:42;100837.16;;;20.89
53667;BMP280;39568;51.026;5.468;2023-06-26T07:17:11;100841.06;;;20.96
53667;BMP280;39568;51.026;5.468;2023-06-26T07:19:37;100857.28;;;20.96
53667;BMP280;39568;51.026;5.468;2023-06-26T07:22:05;100864.03;;;21.05
53667;BMP280;39568;51.026;5.468;2023-06-26T07:24:38;100872.16;;;21.22
53667;BMP280;39568;51.026;5.468;2023-06-26T07:27:05;100874.31;;;21.23
53667;BMP280;39568;51.026;5.468;2023-06-26T07:29:32;100873.91;;;21.27
53667;BMP280;39568;51.026;5.468;2023-06-26T07:31:59;100875.50;;;20.95
53667;BMP280;39568;51.026;5.468;2023-06-26T07:34:26;100874.53;;;21.00
53667;BMP280;39568;51.026;5.468;2023-06-26T07:36:53;100882.59;;;21.52
53667;BMP280;39568;51.026;5.468;2023-06-26T07:39:24;100883.53;;;21.64
53667;BMP280;39568;51.026;5.468;2023-06-26T07:41:54;100886.13;;;21.45
53667;BMP280;39568;51.026;5.468;2023-06-26T07:44:21;100880.56;;;21.43
53667;BMP280;39568;51.026;5.468;2023-06-26T07:46:48;100877.41;;;21.02
53667;BMP280;39568;51.026;5.468;2023-06-26T07:49:15;100891.25;;;21.24
53667;BMP280;39568;51.026;5.468;2023-06-26T07:51:44;100888.63;;;21.16
53667;BMP280;39568;51.026;5.468;2023-06-26T07:54:18;100890.22;;;21.19
53667;BMP280;39568;51.026;5.468;2023-06-26T07:56:58;100904.22;;;21.25
53667;BMP280;39568;51.026;5.468;2023-06-26T07:59:26;100901.19;;;21.04
53667;BMP280;39568;51.026;5.468;2023-06-26T08:01:54;100903.41;;;20.98
53667;BMP280;39568;51.026;5.468;2023-06-26T08:04:22;100904.78;;;21.07
53667;BMP280;39568;51.026;5.468;2023-06-26T08:06:50;100900.19;;;20.99
53667;BMP280;39568;51.026;5.468;2023-06-26T08:09:22;100892.94;;;21.19
53667;BMP280;39568;51.026;5.468;2023-06-26T08:11:50;100896.13;;;21.25
53667;BMP280;39568;51.026;5.468;2023-06-26T08:14:21;100898.63;;;21.40
53667;BMP280;39568;51.026;5.468;2023-06-26T08:16:49;100900.84;;;21.78
53667;BMP280;39568;51.026;5.468;2023-06-26T08:19:19;100891.75;;;21.83
53667;BMP280;39568;51.026;5.468;2023-06-26T08:21:46;100902.66;;;21.66
53667;BMP280;39568;51.026;5.468;2023-06-26T08:24:13;100902.69;;;21.75
53667;BMP280;39568;51.026;5.468;2023-06-26T08:26:42;100909.56;;;21.76
53667;BMP280;39568;51.026;5.468;2023-06-26T08:29:08;100911.13;;;21.53
53667;BMP280;39568;51.026;5.468;2023-06-26T08:31:36;100907.69;;;21.79
53667;BMP280;39568;51.026;5.468;2023-06-26T08:34:04;100908.34;;;22.23
53667;BMP280;39568;51.026;5.468;2023-06-26T08:36:32;100900.22;;;22.23
53667;BMP280;39568;51.026;5.468;2023-06-26T08:39:01;100892.22;;;22.25
53667;BMP280;39568;51.026;5.468;2023-06-26T08:41:31;100913.00;;;22.68
53667;BMP280;39568;51.026;5.468;2023-06-26T08:43:59;100895.69;;;22.45
53667;BMP280;39568;51.026;5.468;2023-06-26T08:46:28;100892.88;;;22.62
53667;BMP280;39568;51.026;5.468;2023-06-26T08:49:01;100905.75;;;22.16
53667;BMP280;39568;51.026;5.468;2023-06-26T08:51:35;100915.19;;;21.88
53667;BMP280;39568;51.026;5.468;2023-06-26T08:54:07;100911.63;;;21.95
53667;BMP280;39568;51.026;5.468;2023-06-26T08:56:39;100919.97;;;22.07
53667;BMP280;39568;51.026;5.468;2023-06-26T08:59:07;100914.69;;;22.54
53667;BMP280;39568;51.026;5.468;2023-06-26T09:01:35;100923.88;;;22.68
53667;BMP280;39568;51.026;5.468;2023-06-26T09:04:04;100924.84;;;22.73
53667;BMP280;39568;51.026;5.468;2023-06-26T09:06:31;100926.47;;;23.05
53667;BMP280;39568;51.026;5.468;2023-06-26T09:08:58;100923.16;;;22.68
53667;BMP280;39568;51.026;5.468;2023-06-26T09:11:25;100923.34;;;22.34
53667;BMP280;39568;51.026;5.468;2023-06-26T09:13:53;100926.00;;;22.15
53667;BMP280;39568;51.026;5.468;2023-06-26T09:16:24;100940.41;;;22.17
53667;BMP280;39568;51.026;5.468;2023-06-26T09:18:52;100918.31;;;22.21
53667;BMP280;39568;51.026;5.468;2023-06-26T09:21:21;100930.28;;;22.54
53667;BMP280;39568;51.026;5.468;2023-06-26T09:23:49;100918.75;;;23.01
53667;BMP280;39568;51.026;5.468;2023-06-26T09:26:16;100936.03;;;23.15
53667;BMP280;39568;51.026;5.468;2023-06-26T09:28:43;100926.19;;;23.01
53667;BMP280;39568;51.026;5.468;2023-06-26T09:31:10;100929.19;;;23.05
53667;BMP280;39568;51.026;5.468;2023-06-26T09:33:38;100937.88;;;22.74
53667;BMP280;39568;51.026;5.468;2023-06-26T09:36:18;100939.81;;;23.69
53667;BMP280;39568;51.026;5.468;2023-06-26T09:38:47;100949.22;;;23.78
53667;BMP280;39568;51.026;5.468;2023-06-26T09:41:15;100953.69;;;24.04
53667;BMP280;39568;51.026;5.468;2023-06-26T09:43:45;100963.44;;;24.07
53667;BMP280;39568;51.026;5.468;2023-06-26T09:46:17;100945.84;;;23.58
53667;BMP280;39568;51.026;5.468;2023-06-26T09:48:45;100952.31;;;22.87
53667;BMP280;39568;51.026;5.468;2023-06-26T09:51:12;100971.66;;;23.88
53667;BMP280;39568;51.026;5.468;2023-06-26T09:53:42;100974.31;;;24.38
53667;BMP280;39568;51.026;5.468;2023-06-26T09:56:15;100976.88;;;24.36
53667;BMP280;39568;51.026;5.468;2023-06-26T09:58:43;100953.97;;;23.58
53667;BMP280;39568;51.026;5.468;2023-06-26T10:01:10;100964.03;;;23.27
53667;BMP280;39568;51.026;5.468;2023-06-26T10:03:37;100968.97;;;22.73
53667;BMP280;39568;51.026;5.468;2023-06-26T10:06:08;100966.91;;;23.98
53667;BMP280;39568;51.026;5.468;2023-06-26T10:08:37;100967.09;;;25.06
53667;BMP280;39568;51.026;5.468;2023-06-26T10:11:04;100963.78;;;23.83
53667;BMP280;39568;51.026;5.468;2023-06-26T10:13:38;100967.19;;;24.75
53667;BMP280;39568;51.026;5.468;2023-06-26T10:16:07;100970.75;;;24.56
53667;BMP280;39568;51.026;5.468;2023-06-26T10:18:35;100965.91;;;24.97
53667;BMP280;39568;51.026;5.468;2023-06-26T10:21:06;100965.31;;;25.31
53667;BMP280;39568;51.026;5.468;2023-06-26T10:23:36;100977.28;;;25.38
53667;BMP280;39568;51.026;5.468;2023-06-26T10:26:06;100986.47;;;24.37
53667;BMP280;39568;51.026;5.468;2023-06-26T10:28:35;100971.84;;;23.71
53667;BMP280;39568;51.026;5.468;2023-06-26T10:31:05;100978.44;;;23.58
53667;BMP280;39568;51.026;5.468;2023-06-26T10:33:34;100985.66;;;24.34
53667;BMP280;39568;51.026;5.468;2023-06-26T10:36:16;100981.38;;;24.95
53667;BMP280;39568;51.026;5.468;2023-06-26T10:38:48;100991.72;;;25.29
53667;BMP280;39568;51.026;5.468;2023-06-26T10:41:19;100982.19;;;24.86
53667;BMP280;39568;51.026;5.468;2023-06-26T10:44:06;100993.97;;;25.21
53667;BMP280;39568;51.026;5.468;2023-06-26T10:46:33;100999.06;;;24.42
53667;BMP280;39568;51.026;5.468;2023-06-26T10:49:01;101004.25;;;24.59
53667;BMP280;39568;51.026;5.468;2023-06-26T10:51:29;101003.66;;;23.90
53667;BMP280;39568;51.026;5.468;2023-06-26T10:53:57;100999.84;;;23.83
53667;BMP280;39568;51.026;5.468;2023-06-26T10:56:50;101007.16;;;25.15
53667;BMP280;39568;51.026;5.468;2023-06-26T10:59:20;100999.75;;;26.52
53667;BMP280;39568;51.026;5.468;2023-06-26T11:01:54;101003.72;;;26.62
53667;BMP280;39568;51.026;5.468;2023-06-26T11:04:36;101006.94;;;25.11
53667;BMP280;39568;51.026;5.468;2023-06-26T11:07:18;101000.47;;;24.12
53667;BMP280;39568;51.026;5.468;2023-06-26T11:09:58;100985.59;;;25.40
53667;BMP280;39568;51.026;5.468;2023-06-26T11:12:37;101014.78;;;25.28
53667;BMP280;39568;51.026;5.468;2023-06-26T11:15:07;101008.66;;;24.43
53667;BMP280;39568;51.026;5.468;2023-06-26T11:17:36;101005.28;;;24.54
53667;BMP280;39568;51.026;5.468;2023-06-26T11:20:05;101012.38;;;24.68
53667;BMP280;39568;51.026;5.468;2023-06-26T11:22:36;101014.88;;;25.51
53667;BMP280;39568;51.026;5.468;2023-06-26T11:25:09;101016.06;;;25.48
53667;BMP280;39568;51.026;5.468;2023-06-26T11:27:38;101010.19;;;25.74
53667;BMP280;39568;51.026;5.468;2023-06-26T11:30:08;101006.03;;;25.29
53667;BMP280;39568;51.026;5.468;2023-06-26T11:32:36;101022.34;;;24.54
53667;BMP280;39568;51.026;5.468;2023-06-26T11:35:03;101025.53;;;24.72
53667;BMP280;39568;51.026;5.468;2023-06-26T11:37:31;101025.56;;;25.58
53667;BMP280;39568;51.026;5.468;2023-06-26T11:39:59;101020.81;;;25.59
53667;BMP280;39568;51.026;5.468;2023-06-26T11:42:34;101032.03;;;25.86
53667;BMP280;39568;51.026;5.468;2023-06-26T11:45:01;101035.97;;;26.29
53667;BMP280;39568;51.026;5.468;2023-06-26T11:47:29;101037.28;;;25.17
53667;BMP280;39568;51.026;5.468;2023-06-26T11:49:57;101030.19;;;24.20
53667;BMP280;39568;51.026;5.468;2023-06-26T11:52:24;101051.69;;;24.77
53667;BMP280;39568;51.026;5.468;2023-06-26T11:54:51;101056.03;;;25.34
53667;BMP280;39568;51.026;5.468;2023-06-26T11:57:17;101055.75;;;26.18
53667;BMP280;39568;51.026;5.468;2023-06-26T11:59:44;101063.44;;;26.56
53667;BMP280;39568;51.026;5.468;2023-06-26T12:02:15;101066.06;;;25.97
53667;BMP280;39568;51.026;5.468;2023-06-26T12:04:48;101072.31;;;26.80
53667;BMP280;39568;51.026;5.468;2023-06-26T12:07:15;101065.59;;;26.35
53667;BMP280;39568;51.026;5.468;2023-06-26T12:09:44;101056.66;;;26.80
53667;BMP280;39568;51.026;5.468;2023-06-26T12:12:14;101067.72;;;26.36
53667;BMP280;39568;51.026;5.468;2023-06-26T12:14:42;101067.59;;;24.80
53667;BMP280;39568;51.026;5.468;2023-06-26T12:17:10;101060.19;;;24.41
53667;BMP280;39568;51.026;5.468;2023-06-26T12:19:38;101060.81;;;24.30
53667;BMP280;39568;51.026;5.468;2023-06-26T12:22:12;101055.19;;;24.37
53667;BMP280;39568;51.026;5.468;2023-06-26T12:24:39;101059.94;;;25.63
53667;BMP280;39568;51.026;5.468;2023-06-26T12:27:10;101064.75;;;26.21
53667;BMP280;39568;51.026;5.468;2023-06-26T12:29:38;101063.50;;;25.77
53667;BMP280;39568;51.026;5.468;2023-06-26T12:32:08;101065.22;;;25.94
53667;BMP280;39568;51.026;5.468;2023-06-26T12:34:38;101073.47;;;27.89
53667;BMP280;39568;51.026;5.468;2023-06-26T12:37:07;101065.00;;;27.58
53667;BMP280;39568;51.026;5.468;2023-06-26T12:39:46;101073.38;;;28.00
53667;BMP280;39568;51.026;5.468;2023-06-26T12:42:15;101064.81;;;27.67
53667;BMP280;39568;51.026;5.468;2023-06-26T12:44:43;101060.59;;;26.43
53667;BMP280;39568;51.026;5.468;2023-06-26T12:47:10;101085.56;;;25.70
53667;BMP280;39568;51.026;5.468;2023-06-26T12:49:40;101076.97;;;25.97
53667;BMP280;39568;51.026;5.468;2023-06-26T12:52:09;101082.09;;;26.25
53667;BMP280;39568;51.026;5.468;2023-06-26T12:54:36;101074.47;;;27.32
53667;BMP280;39568;51.026;5.468;2023-06-26T12:57:08;101079.97;;;28.36
53667;BMP280;39568;51.026;5.468;2023-06-26T12:59:36;101079.56;;;26.75
53667;BMP280;39568;51.026;5.468;2023-06-26T13:02:04;101068.78;;;26.08
53667;BMP280;39568;51.026;5.468;2023-06-26T13:04:31;101078.09;;;25.70
53667;BMP280;39568;51.026;5.468;2023-06-26T13:06:58;101076.16;;;26.17
53667;BMP280;39568;51.026;5.468;2023-06-26T13:09:25;101061.91;;;27.02
53667;BMP280;39568;51.026;5.468;2023-06-26T13:11:52;101068.28;;;27.18
53667;BMP280;39568;51.026;5.468;2023-06-26T13:14:21;101066.84;;;27.42
53667;BMP280;39568;51.026;5.468;2023-06-26T13:16:48;101051.03;;;27.27
53667;BMP280;39568;51.026;5.468;2023-06-26T13:19:17;101043.25;;;27.35
53667;BMP280;39568;51.026;5.468;2023-06-26T13:21:51;101063.56;;;26.58
53667;BMP280;39568;51.026;5.468;2023-06-26T13:24:17;101065.94;;;26.64
53667;BMP280;39568;51.026;5.468;2023-06-26T13:26:46;101069.66;;;26.22
53667;BMP280;39568;51.026;5.468;2023-06-26T13:29:12;101064.75;;;26.09
53667;BMP280;39568;51.026;5.468;2023-06-26T13:31:43;101061.38;;;25.76
53667;BMP280;39568;51.026;5.468;2023-06-26T13:34:19;101065.50;;;26.33
53667;BMP280;39568;51.026;5.468;2023-06-26T13:36:46;101078.75;;;26.38
53667;BMP280;39568;51.026;5.468;2023-06-26T13:39:13;101079.47;;;26.16
53667;BMP280;39568;51.026;5.468;2023-06-26T13:41:40;101084.81;;;26.25
53667;BMP280;39568;51.026;5.468;2023-06-26T13:44:09;101081.00;;;26.19
53667;BMP280;39568;51.026;5.468;2023-06-26T13:46:36;101080.50;;;26.68
53667;BMP280;39568;51.026;5.468;2023-06-26T13:49:07;101101.22;;;25.81
53667;BMP280;39568;51.026;5.468;2023-06-26T13:51:35;101091.09;;;24.76
53667;BMP280;39568;51.026;5.468;2023-06-26T13:54:05;101087.19;;;24.58
53667;BMP280;39568;51.026;5.468;2023-06-26T13:56:33;101096.31;;;26.24
53667;BMP280;39568;51.026;5.468;2023-06-26T13:59:00;101093.00;;;26.48
53667;BMP280;39568;51.026;5.468;2023-06-26T14:01:28;101093.00;;;26.25
53667;BMP280;39568;51.026;5.468;2023-06-26T14:03:54;101085.63;;;25.93
53667;BMP280;39568;51.026;5.468;2023-06-26T14:06:22;101089.16;;;27.25
53667;BMP280;39568;51.026;5.468;2023-06-26T14:08:49;101073.47;;;28.70